Time;durP1;ratioP1;P1;durP2;ratioP2;P2;SDS_P1;SDS_P2;PMS_P1;PMS_P2;Temp;Humidity;BMP_temperature;BMP_pressure;BME280_temperature;BME280_humidity;BME280_pressure;Samples;Min_cycle;Max_cycle;Signal;HPM_P1;HPM_P2
2023/01/17 00:01:45;;;;;;;6.90;5.28;;;3.00;99.90;;;;;;5052437;28;20544;-68
2023/01/17 00:09:52;;;;;;;8.18;5.85;;;3.00;99.90;;;;;;5052234;28;20036;-68
2023/01/17 00:12:22;;;;;;;7.50;5.38;;;3.10;99.90;;;;;;5051947;28;20063;-68
2023/01/17 00:14:48;;;;;;;9.60;5.80;;;3.10;99.90;;;;;;5052271;28;20111;-67
2023/01/17 00:17:14;;;;;;;8.35;6.18;;;3.10;99.90;;;;;;5055116;28;20066;-68
2023/01/17 01:34:22;;;;;;;13.43;8.35;;;3.40;99.90;;;;;;5033970;28;20397;-68
2023/01/17 01:36:48;;;;;;;15.45;8.88;;;3.40;99.90;;;;;;5034073;28;20029;-68
2023/01/17 01:39:14;;;;;;;11.10;8.52;;;3.40;99.90;;;;;;5034463;28;20032;-68
2023/01/17 01:41:39;;;;;;;12.80;8.75;;;3.30;99.90;;;;;;5032360;28;20056;-68
2023/01/17 01:44:41;;;;;;;10.55;7.70;;;3.30;99.90;;;;;;5033998;28;20147;-68
2023/01/17 01:47:10;;;;;;;15.10;7.47;;;3.30;99.90;;;;;;5049669;28;20029;-68
2023/01/17 01:49:37;;;;;;;11.05;6.85;;;3.40;99.90;;;;;;5034395;28;20032;-68
2023/01/17 01:52:06;;;;;;;9.02;6.60;;;3.30;99.90;;;;;;5034524;28;20036;-68
2023/01/17 01:54:39;;;;;;;10.05;7.22;;;3.40;99.90;;;;;;5032468;28;20028;-68
2023/01/17 01:57:08;;;;;;;9.80;6.25;;;3.40;99.90;;;;;;5034036;28;20350;-68
2023/01/17 01:59:37;;;;;;;8.27;6.60;;;3.40;99.90;;;;;;5033356;28;20029;-68
2023/01/17 02:02:02;;;;;;;9.38;6.95;;;3.40;99.90;;;;;;5033583;28;20033;-68
2023/01/17 02:04:28;;;;;;;8.98;7.10;;;3.40;99.90;;;;;;5033425;28;20032;-68
2023/01/17 02:07:20;;;;;;;8.82;6.60;;;3.30;99.90;;;;;;5032778;28;20030;-68
2023/01/17 02:09:46;;;;;;;10.02;7.13;;;3.30;99.90;;;;;;5033907;28;20034;-68
2023/01/17 02:12:12;;;;;;;9.52;7.10;;;3.40;99.90;;;;;;5033025;28;20033;-68
2023/01/17 02:14:38;;;;;;;8.65;7.30;;;3.30;99.90;;;;;;5033479;28;20057;-68
2023/01/17 02:17:28;;;;;;;9.95;6.63;;;3.40;99.90;;;;;;5033741;28;20030;-67
2023/01/17 02:20:07;;;;;;;8.88;7.15;;;3.40;99.90;;;;;;5033502;28;20037;-68
2023/01/17 02:22:47;;;;;;;9.98;7.68;;;3.40;99.90;;;;;;5032904;28;20063;-67
2023/01/17 02:25:31;;;;;;;7.70;6.47;;;3.40;99.90;;;;;;5033293;28;20021;-67
2023/01/17 02:28:08;;;;;;;11.23;6.88;;;3.40;99.90;;;;;;5033277;28;20086;-67
2023/01/17 02:30:41;;;;;;;8.77;6.53;;;3.40;99.90;;;;;;5033116;28;20033;-66
2023/01/17 02:33:35;;;;;;;9.15;6.93;;;3.40;99.90;;;;;;5034047;28;20049;-67
2023/01/17 02:36:06;;;;;;;9.45;6.30;;;3.30;99.90;;;;;;5033731;28;20463;-69
2023/01/17 02:38:41;;;;;;;8.95;6.90;;;3.30;99.90;;;;;;5032608;28;20063;-68
2023/01/17 02:41:15;;;;;;;12.15;7.47;;;3.30;99.90;;;;;;5032950;28;20494;-67
2023/01/17 02:43:41;;;;;;;10.68;7.45;;;3.20;99.90;;;;;;5033254;28;20018;-67
2023/01/17 02:46:07;;;;;;;10.38;7.55;;;3.20;99.90;;;;;;5032882;28;20033;-67
2023/01/17 02:48:35;;;;;;;11.15;8.05;;;3.20;99.90;;;;;;5032638;28;20029;-67
2023/01/17 02:51:19;;;;;;;12.48;7.90;;;3.20;99.90;;;;;;5032910;28;20021;-69
2023/01/17 02:54:03;;;;;;;12.35;8.73;;;3.10;99.90;;;;;;5033042;28;20037;-66
2023/01/17 02:57:02;;;;;;;11.07;8.30;;;3.10;99.90;;;;;;5032544;28;20029;-66
2023/01/17 02:59:51;;;;;;;10.95;8.55;;;3.10;99.90;;;;;;5032594;28;20097;-66
2023/01/17 03:02:24;;;;;;;11.43;8.05;;;3.10;99.90;;;;;;5032532;28;20029;-68
2023/01/17 03:05:01;;;;;;;11.80;8.68;;;3.00;99.90;;;;;;5033096;28;20037;-68
2023/01/17 03:07:28;;;;;;;13.50;9.43;;;3.10;99.90;;;;;;5032537;28;20026;-68
2023/01/17 03:09:58;;;;;;;15.30;8.50;;;3.00;99.90;;;;;;5032727;28;20095;-67
2023/01/17 03:12:32;;;;;;;10.82;9.10;;;3.00;99.90;;;;;;5032481;28;20426;-67
2023/01/17 03:14:58;;;;;;;12.38;9.20;;;3.00;99.90;;;;;;5032765;28;20373;-68
2023/01/17 03:17:29;;;;;;;12.40;9.25;;;3.00;99.90;;;;;;5032337;28;20022;-68
2023/01/17 03:19:54;;;;;;;13.27;9.18;;;3.00;99.90;;;;;;5048247;28;20075;-68
2023/01/17 03:22:20;;;;;;;14.98;9.60;;;3.00;99.90;;;;;;5032111;28;20045;-68
2023/01/17 03:24:46;;;;;;;13.60;10.05;;;2.90;99.90;;;;;;5031550;28;20060;-68
2023/01/17 03:27:12;;;;;;;12.27;8.85;;;2.90;99.90;;;;;;5033018;28;20029;-67
2023/01/17 03:29:38;;;;;;;13.18;9.00;;;2.90;99.90;;;;;;5032163;28;20331;-67
2023/01/17 03:32:03;;;;;;;12.23;8.65;;;2.90;99.90;;;;;;5043522;28;20029;-67
2023/01/17 03:34:29;;;;;;;13.23;9.43;;;2.90;99.90;;;;;;5051657;28;20025;-67
2023/01/17 03:36:55;;;;;;;14.60;9.27;;;2.90;99.90;;;;;;5052913;28;20107;-66
2023/01/17 03:39:20;;;;;;;13.50;9.02;;;2.80;99.90;;;;;;5051891;28;20104;-67
2023/01/17 03:41:46;;;;;;;11.23;9.15;;;2.90;99.90;;;;;;5052204;28;20079;-67
2023/01/17 03:44:12;;;;;;;13.77;9.45;;;2.80;99.90;;;;;;5052421;28;20025;-67
2023/01/17 03:46:37;;;;;;;12.95;8.88;;;2.80;99.90;;;;;;5051936;28;20048;-68
2023/01/17 03:49:03;;;;;;;13.80;9.48;;;2.80;99.90;;;;;;5052334;28;20032;-68
2023/01/17 03:51:28;;;;;;;12.68;8.65;;;2.80;99.90;;;;;;5053967;28;20032;-68
2023/01/17 03:53:54;;;;;;;11.75;8.93;;;2.80;99.90;;;;;;5055981;28;20381;-66
2023/01/17 03:56:20;;;;;;;13.48;9.38;;;2.80;99.90;;;;;;5055869;28;20017;-69
2023/01/17 03:58:45;;;;;;;11.82;8.77;;;2.90;99.90;;;;;;5054721;28;20112;-68
2023/01/17 04:01:11;;;;;;;12.38;9.18;;;2.90;99.90;;;;;;5055796;28;20045;-68
2023/01/17 04:03:38;;;;;;;12.52;8.30;;;2.90;99.90;;;;;;5055698;28;20438;-68
2023/01/17 04:06:04;;;;;;;13.38;10.05;;;2.90;99.90;;;;;;5056003;28;20055;-68
2023/01/17 04:08:29;;;;;;;12.80;9.80;;;2.90;99.90;;;;;;5055521;28;20028;-68
2023/01/17 04:10:55;;;;;;;11.27;8.70;;;2.90;99.90;;;;;;5055855;28;20389;-68
2023/01/17 04:13:21;;;;;;;14.40;9.70;;;2.90;99.90;;;;;;5055429;28;20025;-69
2023/01/17 04:15:49;;;;;;;14.18;9.95;;;3.00;99.90;;;;;;5055497;28;20133;-68
2023/01/17 04:18:16;;;;;;;14.13;9.60;;;3.00;99.90;;;;;;5055843;28;20025;-69
2023/01/17 04:20:42;;;;;;;15.02;10.40;;;3.00;99.90;;;;;;5055409;28;20048;-68
2023/01/17 04:23:08;;;;;;;13.25;9.50;;;2.90;99.90;;;;;;5055722;28;20486;-68
2023/01/17 04:25:34;;;;;;;13.77;9.93;;;3.00;99.90;;;;;;5055224;28;20040;-68
2023/01/17 04:28:01;;;;;;;17.08;10.40;;;2.90;99.90;;;;;;5055670;28;20025;-68
2023/01/17 04:30:27;;;;;;;15.68;10.45;;;2.90;99.90;;;;;;5055044;28;20159;-68
2023/01/17 04:32:53;;;;;;;15.00;10.57;;;3.00;99.90;;;;;;5056084;28;20029;-68
2023/01/17 04:35:19;;;;;;;14.02;10.40;;;3.00;99.90;;;;;;5055787;28;20032;-68
2023/01/17 04:37:45;;;;;;;15.70;10.20;;;3.00;99.90;;;;;;5054956;28;20029;-68
2023/01/17 04:40:11;;;;;;;15.55;10.60;;;3.10;99.90;;;;;;5055155;28;20053;-68
2023/01/17 04:42:37;;;;;;;14.63;10.75;;;3.10;99.90;;;;;;5055021;28;20090;-68
2023/01/17 04:45:03;;;;;;;17.30;10.65;;;3.10;99.90;;;;;;5055982;28;20037;-68
2023/01/17 04:47:29;;;;;;;14.73;11.20;;;3.00;99.90;;;;;;5055810;28;20052;-69
2023/01/17 04:49:55;;;;;;;15.77;11.13;;;3.10;99.90;;;;;;5057947;28;20040;-68
2023/01/17 04:52:20;;;;;;;17.35;11.88;;;3.00;99.90;;;;;;5055130;28;20028;-68
2023/01/17 04:54:49;;;;;;;14.32;10.82;;;3.00;99.90;;;;;;5055032;28;20094;-68
2023/01/17 04:57:16;;;;;;;19.23;11.73;;;3.00;99.90;;;;;;5055259;28;20031;-68
2023/01/17 04:59:45;;;;;;;15.98;11.32;;;3.00;99.90;;;;;;5054785;28;20025;-68
2023/01/17 05:02:12;;;;;;;18.73;11.27;;;3.10;99.90;;;;;;5053806;28;20120;-68
2023/01/17 05:04:38;;;;;;;15.57;11.68;;;3.00;99.90;;;;;;5054640;28;20029;-68
2023/01/17 05:07:04;;;;;;;21.83;11.73;;;3.00;99.90;;;;;;5055105;28;20035;-68
2023/01/17 05:09:30;;;;;;;14.60;10.85;;;3.00;99.90;;;;;;5054278;28;20096;-68
2023/01/17 05:11:56;;;;;;;15.02;11.52;;;3.00;99.90;;;;;;5054660;28;20026;-68
2023/01/17 05:14:25;;;;;;;18.95;13.00;;;3.00;99.90;;;;;;5054869;28;20070;-68
2023/01/17 05:16:54;;;;;;;15.15;11.43;;;3.00;99.90;;;;;;5054722;28;20462;-68
2023/01/17 05:19:20;;;;;;;15.70;11.65;;;3.10;99.90;;;;;;5054674;28;20114;-68
2023/01/17 05:21:46;;;;;;;15.38;10.55;;;3.10;99.90;;;;;;5054199;28;20357;-68
2023/01/17 05:24:11;;;;;;;15.32;11.18;;;3.10;99.90;;;;;;5054575;28;20017;-68
2023/01/17 05:26:37;;;;;;;15.32;10.45;;;3.10;99.90;;;;;;5054274;28;20041;-68
2023/01/17 05:29:03;;;;;;;17.02;10.82;;;3.10;99.90;;;;;;5054849;28;20025;-68
2023/01/17 05:31:28;;;;;;;15.18;10.77;;;3.10;99.90;;;;;;5053805;28;20021;-68
2023/01/17 05:33:54;;;;;;;14.77;11.50;;;3.10;99.90;;;;;;5054415;28;20060;-68
2023/01/17 05:36:20;;;;;;;17.15;10.75;;;3.10;99.90;;;;;;5054534;28;20032;-68
2023/01/17 05:38:45;;;;;;;15.52;11.00;;;3.10;99.90;;;;;;5053522;28;20200;-68
2023/01/17 05:41:11;;;;;;;15.18;10.50;;;3.10;99.90;;;;;;5054403;28;20394;-68
2023/01/17 05:43:37;;;;;;;16.65;10.98;;;3.10;99.90;;;;;;5053920;28;20061;-68
2023/01/17 05:46:03;;;;;;;17.38;11.93;;;3.10;99.90;;;;;;5054182;28;20032;-68
2023/01/17 05:48:28;;;;;;;18.65;10.90;;;3.10;99.90;;;;;;5053595;28;20094;-68
2023/01/17 05:50:54;;;;;;;14.02;10.75;;;3.20;99.90;;;;;;5054157;28;20100;-68
2023/01/17 05:53:20;;;;;;;15.63;11.65;;;3.20;99.90;;;;;;5053921;28;20048;-68
2023/01/17 05:55:46;;;;;;;16.08;10.93;;;3.20;99.90;;;;;;5053256;28;20029;-68
2023/01/17 05:58:15;;;;;;;16.42;11.82;;;3.20;99.90;;;;;;5053764;28;20071;-68
2023/01/17 06:00:41;;;;;;;18.75;11.70;;;3.20;99.90;;;;;;5053287;28;20543;-67
2023/01/17 06:03:07;;;;;;;17.20;11.23;;;3.20;99.90;;;;;;5053634;28;20036;-67
2023/01/17 06:05:33;;;;;;;17.05;11.40;;;3.20;99.90;;;;;;5053259;28;20020;-67
2023/01/17 06:07:59;;;;;;;18.75;11.50;;;3.20;99.90;;;;;;5053398;28;20029;-67
2023/01/17 06:10:25;;;;;;;14.75;11.13;;;3.10;99.90;;;;;;5053599;28;20032;-67
2023/01/17 06:13:05;;;;;;;18.73;11.27;;;3.10;99.90;;;;;;5055358;28;20064;-67
2023/01/17 06:15:31;;;;;;;16.42;12.15;;;3.10;99.90;;;;;;5058558;28;20394;-67
2023/01/17 06:17:56;;;;;;;17.50;11.75;;;3.20;99.90;;;;;;5056142;28;20373;-67
2023/01/17 06:20:22;;;;;;;17.63;12.38;;;3.20;99.90;;;;;;5053734;28;20020;-67
2023/01/17 06:22:48;;;;;;;21.42;11.68;;;3.20;99.90;;;;;;5053110;28;20104;-68
2023/01/17 06:25:13;;;;;;;16.88;12.10;;;3.20;99.90;;;;;;5053667;28;20060;-67
2023/01/17 06:27:39;;;;;;;16.23;11.95;;;3.20;99.90;;;;;;5053017;28;20035;-68
2023/01/17 06:30:06;;;;;;;16.13;11.48;;;3.20;99.90;;;;;;5052838;28;20103;-68
2023/01/17 06:32:31;;;;;;;17.27;12.27;;;3.20;99.90;;;;;;5052757;28;20098;-68
2023/01/17 06:34:57;;;;;;;16.20;11.05;;;3.20;99.90;;;;;;5052837;28;20033;-68
2023/01/17 06:37:23;;;;;;;17.48;11.82;;;3.20;99.90;;;;;;5053269;28;20032;-68
2023/01/17 06:39:48;;;;;;;19.08;11.68;;;3.20;99.90;;;;;;5052413;28;20101;-68
2023/01/17 06:42:14;;;;;;;20.20;12.13;;;3.20;99.90;;;;;;5053139;28;20495;-68
2023/01/17 06:44:40;;;;;;;19.40;11.75;;;3.20;99.90;;;;;;5052698;28;20374;-68
2023/01/17 06:47:05;;;;;;;15.77;11.25;;;3.10;99.90;;;;;;5052849;28;20025;-68
2023/01/17 06:49:31;;;;;;;19.48;11.23;;;3.10;99.90;;;;;;5052755;28;20056;-68
2023/01/17 06:51:57;;;;;;;17.50;12.77;;;3.10;99.90;;;;;;5052767;28;20039;-68
2023/01/17 06:54:22;;;;;;;14.25;11.00;;;3.10;99.90;;;;;;5052588;28;20452;-68
2023/01/17 06:56:48;;;;;;;15.75;11.70;;;3.10;99.90;;;;;;5052482;28;20033;-68
2023/01/17 06:59:14;;;;;;;19.05;11.73;;;3.10;99.90;;;;;;5052482;28;20103;-68
2023/01/17 07:01:40;;;;;;;18.95;12.77;;;3.10;99.90;;;;;;5052285;28;20119;-69
2023/01/17 07:04:06;;;;;;;17.80;12.00;;;3.10;99.90;;;;;;5052492;28;20036;-68
2023/01/17 07:06:33;;;;;;;21.42;12.77;;;3.20;99.90;;;;;;5052700;28;20029;-68
2023/01/17 07:08:59;;;;;;;19.45;12.27;;;3.20;99.90;;;;;;5052371;28;20033;-68
2023/01/17 07:11:26;;;;;;;19.65;12.85;;;3.20;99.90;;;;;;5052755;28;20032;-68
2023/01/17 07:13:52;;;;;;;16.77;13.10;;;3.20;99.90;;;;;;5052167;28;20108;-68
2023/01/17 07:16:18;;;;;;;19.27;12.95;;;3.20;99.90;;;;;;5052697;28;20057;-68
2023/01/17 07:18:43;;;;;;;18.98;12.60;;;3.20;99.90;;;;;;5051873;28;20437;-68
2023/01/17 07:21:13;;;;;;;18.10;11.93;;;3.20;99.90;;;;;;5052124;28;20064;-68
2023/01/17 07:23:40;;;;;;;20.02;11.95;;;3.30;99.90;;;;;;5052202;28;20033;-68
2023/01/17 07:26:05;;;;;;;15.75;11.50;;;3.30;99.90;;;;;;5054060;28;20032;-68
2023/01/17 07:28:32;;;;;;;17.05;12.32;;;3.30;99.90;;;;;;5057021;28;20033;-68
2023/01/17 07:30:57;;;;;;;15.93;11.55;;;3.30;99.90;;;;;;5056331;28;20033;-67
2023/01/17 07:33:23;;;;;;;13.32;10.27;;;3.40;99.90;;;;;;5056843;28;20091;-67
2023/01/17 07:35:49;;;;;;;14.43;10.27;;;3.40;99.90;;;;;;5055817;28;20059;-67
2023/01/17 07:38:17;;;;;;;18.02;10.20;;;3.40;99.90;;;;;;5056216;28;20029;-68
2023/01/17 07:40:43;;;;;;;13.07;9.70;;;3.50;99.90;;;;;;5056652;28;20101;-68
2023/01/17 07:43:12;;;;;;;14.65;9.93;;;3.50;99.90;;;;;;5057385;28;20079;-68
2023/01/17 07:45:43;;;;;;;13.68;9.05;;;3.50;99.90;;;;;;5054092;28;20025;-68
2023/01/17 07:48:10;;;;;;;12.82;9.43;;;3.50;99.90;;;;;;5056295;28;20397;-67
2023/01/17 07:50:36;;;;;;;13.18;9.82;;;3.60;99.90;;;;;;5055998;28;20033;-69
2023/01/17 07:53:02;;;;;;;11.05;8.40;;;3.50;99.90;;;;;;5056277;28;20374;-68
2023/01/17 07:55:28;;;;;;;12.80;8.52;;;3.60;99.90;;;;;;5055992;28;20047;-68
2023/01/17 07:57:54;;;;;;;13.50;8.90;;;3.60;99.90;;;;;;5055748;28;20501;-68
2023/01/17 08:00:21;;;;;;;14.38;8.27;;;3.60;99.90;;;;;;5056271;28;20458;-68
2023/01/17 08:02:48;;;;;;;11.13;9.00;;;3.70;99.90;;;;;;5055648;28;20082;-68
2023/01/17 08:05:14;;;;;;;16.60;8.30;;;3.70;99.90;;;;;;5056007;28;20056;-68
2023/01/17 08:07:39;;;;;;;10.32;7.50;;;3.70;99.90;;;;;;5055709;28;20052;-68
2023/01/17 08:10:07;;;;;;;13.93;7.43;;;3.70;99.90;;;;;;5056120;28;20028;-68
2023/01/17 08:12:34;;;;;;;12.15;7.38;;;3.80;99.90;;;;;;5056020;28;20072;-67
2023/01/17 08:15:00;;;;;;;10.48;7.35;;;3.80;99.90;;;;;;5055703;28;20051;-67
2023/01/17 08:17:27;;;;;;;13.38;7.78;;;3.80;99.90;;;;;;5056495;28;20029;-67
2023/01/17 08:19:52;;;;;;;12.73;7.65;;;3.90;99.90;;;;;;5055571;28;20029;-67
2023/01/17 08:22:18;;;;;;;11.35;7.75;;;3.90;99.90;;;;;;5057044;28;20032;-67
2023/01/17 08:24:44;;;;;;;11.32;7.43;;;3.90;99.90;;;;;;5057736;28;20227;-68
2023/01/17 08:27:09;;;;;;;11.35;7.20;;;3.90;99.90;;;;;;5058051;28;20036;-67
2023/01/17 08:29:36;;;;;;;12.05;7.90;;;4.00;99.90;;;;;;5057675;28;20031;-68
2023/01/17 08:32:02;;;;;;;12.38;7.82;;;4.00;99.90;;;;;;5056200;28;20092;-68
2023/01/17 08:34:27;;;;;;;13.40;8.15;;;4.10;99.90;;;;;;5057750;28;20089;-68
2023/01/17 08:36:53;;;;;;;14.27;8.45;;;4.10;99.90;;;;;;5057523;28;20061;-69
2023/01/17 08:39:20;;;;;;;14.93;7.93;;;4.10;99.90;;;;;;5057235;28;20406;-68
2023/01/17 08:41:46;;;;;;;11.15;7.90;;;4.10;99.90;;;;;;5055178;28;20120;-67
2023/01/17 08:44:12;;;;;;;14.73;8.25;;;4.10;99.90;;;;;;5054452;28;20071;-69
2023/01/17 08:46:38;;;;;;;12.32;7.93;;;4.10;99.90;;;;;;5055188;28;20033;-67
2023/01/17 08:49:04;;;;;;;21.35;9.65;;;4.20;99.90;;;;;;5054634;28;20112;-67
2023/01/17 08:51:31;;;;;;;13.15;7.90;;;4.30;99.90;;;;;;5055163;28;20025;-69
2023/01/17 08:53:57;;;;;;;11.00;7.05;;;4.40;99.90;;;;;;5054910;28;20029;-69
2023/01/17 08:56:23;;;;;;;12.88;7.65;;;4.40;99.90;;;;;;5055049;28;20091;-69
2023/01/17 08:58:48;;;;;;;13.15;6.68;;;4.50;99.90;;;;;;5054769;28;20385;-69
2023/01/17 09:01:15;;;;;;;13.18;6.95;;;4.50;99.90;;;;;;5055937;28;20029;-68
2023/01/17 09:03:41;;;;;;;11.13;7.05;;;4.60;99.90;;;;;;5055203;28;20056;-68
2023/01/17 09:06:12;;;;;;;9.65;6.80;;;4.60;99.90;;;;;;5057247;28;20040;-68
2023/01/17 09:08:38;;;;;;;11.52;6.78;;;4.60;99.90;;;;;;5055258;28;20028;-68
2023/01/17 09:11:04;;;;;;;14.10;6.57;;;4.70;99.90;;;;;;5054292;28;20124;-68
2023/01/17 09:13:30;;;;;;;7.57;5.95;;;4.70;99.90;;;;;;5054359;28;20025;-68
2023/01/17 09:15:57;;;;;;;9.70;6.97;;;4.70;99.90;;;;;;5054177;28;20032;-68
2023/01/17 09:18:24;;;;;;;11.18;7.30;;;4.70;99.90;;;;;;5054935;28;20130;-68
2023/01/17 09:20:53;;;;;;;10.93;7.07;;;4.80;99.90;;;;;;5054016;28;20491;-68
2023/01/17 09:23:22;;;;;;;11.57;6.93;;;4.70;99.90;;;;;;5054576;28;20021;-68
2023/01/17 09:25:52;;;;;;;11.27;6.80;;;4.80;99.90;;;;;;5053789;28;20033;-68
2023/01/17 09:28:18;;;;;;;13.00;6.78;;;4.80;99.90;;;;;;5054432;28;20039;-68
2023/01/17 09:30:43;;;;;;;13.77;8.05;;;4.80;99.90;;;;;;5053968;28;20037;-69
2023/01/17 09:33:09;;;;;;;13.52;7.70;;;4.80;99.90;;;;;;5054098;28;20025;-68
2023/01/17 09:35:35;;;;;;;10.88;7.53;;;4.80;99.90;;;;;;5052834;28;20155;-68
2023/01/17 09:38:00;;;;;;;11.65;7.72;;;4.80;99.90;;;;;;5054059;28;20029;-68
2023/01/17 09:40:26;;;;;;;9.85;7.00;;;4.80;99.90;;;;;;5053897;28;20053;-68
2023/01/17 09:42:57;;;;;;;14.15;7.97;;;4.80;99.90;;;;;;5053594;28;20458;-68
2023/01/17 09:45:26;;;;;;;11.02;8.02;;;4.80;99.90;;;;;;5053539;28;20121;-68
2023/01/17 09:47:54;;;;;;;10.38;6.90;;;4.80;99.90;;;;;;5053290;28;20056;-68
2023/01/17 09:50:43;;;;;;;10.75;7.20;;;4.80;99.90;;;;;;5052402;28;20035;-68
2023/01/17 09:53:14;;;;;;;11.98;7.63;;;4.90;99.90;;;;;;5057821;28;20033;-68
2023/01/17 09:56:01;;;;;;;12.85;7.50;;;4.90;99.90;;;;;;5060384;28;20523;-68
2023/01/17 09:58:48;;;;;;;16.05;7.05;;;4.90;99.90;;;;;;5054059;28;20021;-68
2023/01/17 10:01:36;;;;;;;8.52;6.10;;;4.90;99.90;;;;;;5053776;28;20071;-68
2023/01/17 10:04:34;;;;;;;9.55;5.65;;;4.90;99.90;;;;;;5053193;28;20025;-68
2023/01/17 10:07:23;;;;;;;10.23;5.47;;;5.00;99.90;;;;;;5052984;28;20108;-68
2023/01/17 10:10:26;;;;;;;8.68;5.00;;;5.00;99.90;;;;;;5053041;28;20462;-69
2023/01/17 10:13:16;;;;;;;14.10;5.13;;;5.10;99.90;;;;;;5053205;28;20037;-68
2023/01/17 10:16:18;;;;;;;10.65;5.00;;;5.20;99.90;;;;;;5053382;28;20089;-68
2023/01/17 10:19:06;;;;;;;8.60;4.85;;;5.30;99.90;;;;;;5052302;28;20021;-68
2023/01/17 10:22:01;;;;;;;8.30;4.47;;;5.40;99.90;;;;;;5053280;28;20037;-68
2023/01/17 10:24:59;;;;;;;8.23;4.47;;;5.50;99.90;;;;;;5053246;28;20029;-68
2023/01/17 10:27:29;;;;;;;7.60;4.68;;;5.60;99.90;;;;;;5053467;28;20078;-68
2023/01/17 10:29:55;;;;;;;10.35;4.40;;;5.70;99.90;;;;;;5052568;28;20035;-68
2023/01/17 10:32:27;;;;;;;9.43;5.45;;;5.70;99.90;;;;;;5053129;28;20103;-68
2023/01/17 10:34:53;;;;;;;8.02;4.70;;;5.80;99.60;;;;;;5052968;28;20029;-68
2023/01/17 10:37:22;;;;;;;6.50;4.22;;;5.80;98.80;;;;;;5053329;28;20028;-68
2023/01/17 10:39:50;;;;;;;11.18;4.95;;;5.90;98.20;;;;;;5053097;28;20049;-68
2023/01/17 10:42:26;;;;;;;6.75;4.88;;;6.00;98.40;;;;;;5053173;28;20107;-68
2023/01/17 10:45:27;;;;;;;6.50;4.25;;;6.00;98.50;;;;;;5053173;28;20040;-68
2023/01/17 10:48:21;;;;;;;7.45;4.32;;;6.00;97.80;;;;;;5051393;28;20041;-68
2023/01/17 10:51:02;;;;;;;11.13;3.83;;;6.10;97.40;;;;;;5050301;28;20157;-68
2023/01/17 10:54:06;;;;;;;7.03;4.05;;;6.10;96.90;;;;;;5052901;28;20059;-68
2023/01/17 10:56:33;;;;;;;6.22;3.92;;;6.10;96.90;;;;;;5053698;28;20037;-67
2023/01/17 10:59:26;;;;;;;6.05;3.92;;;6.10;96.80;;;;;;5052773;28;20106;-68
2023/01/17 11:01:51;;;;;;;4.95;3.13;;;6.10;96.90;;;;;;5052132;28;20025;-68
2023/01/17 11:04:35;;;;;;;5.68;3.72;;;6.10;96.80;;;;;;5052545;28;20021;-68
2023/01/17 11:07:19;;;;;;;6.03;3.30;;;6.10;97.30;;;;;;5052307;28;20025;-68
2023/01/17 11:09:48;;;;;;;5.28;3.05;;;6.00;97.50;;;;;;5052447;28;20612;-68
2023/01/17 11:12:38;;;;;;;6.38;3.75;;;6.00;97.50;;;;;;5050991;28;20039;-68
2023/01/17 11:15:07;;;;;;;7.50;3.40;;;6.00;97.90;;;;;;5052285;28;20029;-68
2023/01/17 11:17:36;;;;;;;6.50;3.58;;;6.00;98.00;;;;;;5052167;28;20064;-67
2023/01/17 11:20:44;;;;;;;3.40;2.58;;;6.10;98.30;;;;;;5052060;28;20504;-67
2023/01/17 11:23:25;;;;;;;3.28;2.67;;;6.10;98.20;;;;;;5009908;28;20084;-68
2023/01/17 11:26:01;;;;;;;4.15;1.90;;;6.10;98.10;;;;;;5048599;28;20068;-68
2023/01/17 11:28:29;;;;;;;4.30;1.65;;;6.20;97.70;;;;;;5052408;28;20028;-68
2023/01/17 11:30:57;;;;;;;6.45;2.10;;;6.30;97.10;;;;;;5051953;28;20032;-69
2023/01/17 11:33:44;;;;;;;3.67;2.10;;;6.40;96.70;;;;;;5052271;28;20037;-69
2023/01/17 11:36:31;;;;;;;3.85;1.38;;;6.50;96.30;;;;;;5051839;28;20107;-68
2023/01/17 11:39:03;;;;;;;2.47;1.30;;;6.60;95.50;;;;;;5051973;28;20029;-68
2023/01/17 11:41:35;;;;;;;;;;;6.70;94.70;;;;;;5050897;28;20551;-68
2023/01/17 11:44:03;;;;;;;1.02;0.80;;;6.70;94.20;;;;;;5051322;28;19904;-68
2023/01/17 11:46:28;;;;;;;6.00;0.85;;;6.70;93.60;;;;;;5052399;28;20028;-68
2023/01/17 11:48:58;;;;;;;4.00;1.08;;;6.70;91.90;;;;;;5051792;28;20021;-69
2023/01/17 11:51:34;;;;;;;2.28;0.90;;;6.70;90.80;;;;;;5052366;28;20032;-68
2023/01/17 11:54:06;;;;;;;4.90;1.00;;;6.80;90.90;;;;;;5051834;28;20056;-68
2023/01/17 11:56:35;;;;;;;2.65;1.08;;;6.80;90.40;;;;;;5052306;28;20029;-68
2023/01/17 11:59:22;;;;;;;2.65;1.00;;;6.80;90.20;;;;;;5051639;28;20035;-69
2023/01/17 12:02:03;;;;;;;3.15;1.20;;;6.80;90.20;;;;;;5052033;28;20068;-68
2023/01/17 12:04:41;;;;;;;1.85;1.10;;;6.80;90.40;;;;;;5051983;28;20029;-68
2023/01/17 12:07:29;;;;;;;2.83;1.00;;;6.80;90.40;;;;;;5051836;28;20033;-68
2023/01/17 12:10:40;;;;;;;5.43;1.20;;;6.80;90.60;;;;;;5051734;28;20110;-68
2023/01/17 12:19:15;;;;;;;1.38;0.90;;;6.80;91.60;;;;;;5055474;28;20044;-68
2023/01/17 12:21:47;;;;;;;2.40;1.30;;;6.80;91.90;;;;;;5044691;28;20127;-68
2023/01/17 12:24:46;;;;;;;2.40;0.85;;;6.80;92.10;;;;;;5055376;28;20075;-68
2023/01/17 12:27:46;;;;;;;4.15;1.10;;;6.90;92.70;;;;;;5055298;28;20025;-68
2023/01/17 12:30:44;;;;;;;3.47;1.08;;;6.90;92.70;;;;;;5054672;28;20138;-67
2023/01/17 12:33:19;;;;;;;3.53;1.25;;;7.00;92.60;;;;;;5042813;28;20166;-68
2023/01/17 12:35:55;;;;;;;4.20;1.00;;;7.00;92.80;;;;;;5055247;28;20486;-68
2023/01/17 12:38:29;;;;;;;1.70;1.02;;;7.00;92.80;;;;;;5055092;28;20028;-68
2023/01/17 12:41:08;;;;;;;1.88;1.23;;;7.00;92.80;;;;;;5055316;28;20544;-68
2023/01/17 12:43:38;;;;;;;2.28;1.25;;;7.00;92.50;;;;;;5055368;28;20033;-68
2023/01/17 12:46:19;;;;;;;2.40;1.02;;;7.00;92.80;;;;;;5054632;28;20025;-68
2023/01/17 12:48:51;;;;;;;5.15;2.05;;;7.00;92.80;;;;;;5055356;28;20025;-67
2023/01/17 12:51:19;;;;;;;2.53;1.73;;;7.10;92.90;;;;;;5054817;28;20029;-69
2023/01/17 12:54:01;;;;;;;3.90;1.80;;;7.10;93.00;;;;;;5055094;28;20097;-68
2023/01/17 12:56:47;;;;;;;4.68;2.10;;;7.10;93.30;;;;;;5055301;28;20026;-67
2023/01/17 12:59:54;;;;;;;3.50;2.35;;;7.10;93.90;;;;;;5054915;28;20074;-67
2023/01/17 13:03:00;;;;;;;2.97;2.33;;;7.00;94.50;;;;;;5032367;28;20419;-68
2023/01/17 13:05:35;;;;;;;3.33;1.70;;;7.10;95.20;;;;;;5055063;28;20447;-67
2023/01/17 13:08:23;;;;;;;3.70;2.25;;;7.00;95.50;;;;;;5054697;28;20021;-70
2023/01/17 13:11:27;;;;;;;4.38;1.70;;;7.00;96.00;;;;;;5054826;28;20458;-68
2023/01/17 13:13:56;;;;;;;2.88;1.95;;;7.00;96.70;;;;;;5054882;28;20071;-68
2023/01/17 13:16:47;;;;;;;3.08;2.08;;;7.00;96.80;;;;;;5053921;28;20053;-68
2023/01/17 13:20:04;;;;;;;2.65;1.95;;;6.90;96.90;;;;;;5054202;28;20025;-68
2023/01/17 13:22:31;;;;;;;3.78;1.90;;;6.90;97.30;;;;;;5012157;28;20030;-68
2023/01/17 13:25:06;;;;;;;4.72;2.10;;;6.90;97.40;;;;;;5049722;28;20048;-68
2023/01/17 13:27:48;;;;;;;2.00;1.40;;;6.90;97.50;;;;;;5054346;28;20029;-68
2023/01/17 13:30:35;;;;;;;2.30;1.50;;;6.80;97.60;;;;;;5054388;28;20025;-69
2023/01/17 13:33:27;;;;;;;2.45;1.45;;;6.80;97.50;;;;;;5053211;28;20033;-68
2023/01/17 13:36:14;;;;;;;1.98;1.20;;;6.80;97.20;;;;;;5055238;28;20025;-68
2023/01/17 13:39:10;;;;;;;2.05;1.40;;;6.70;97.40;;;;;;5054494;28;20060;-68
2023/01/17 13:41:51;;;;;;;4.43;1.80;;;6.70;97.90;;;;;;5054509;28;20052;-68
2023/01/17 13:44:20;;;;;;;3.83;1.83;;;6.70;98.30;;;;;;5053480;28;20112;-68
2023/01/17 13:46:54;;;;;;;5.75;1.60;;;6.70;98.90;;;;;;5053508;28;20529;-68
2023/01/17 13:49:33;;;;;;;3.13;1.52;;;6.70;99.40;;;;;;5054729;28;20085;-68
2023/01/17 13:52:09;;;;;;;2.30;1.38;;;6.70;99.70;;;;;;5054042;28;20040;-68
2023/01/17 13:55:03;;;;;;;4.00;1.52;;;6.60;99.90;;;;;;5054273;28;20029;-68
2023/01/17 13:57:38;;;;;;;2.35;1.60;;;6.60;99.90;;;;;;5053760;28;20052;-68
2023/01/17 14:00:20;;;;;;;4.28;1.75;;;6.60;99.90;;;;;;5053362;28;20059;-69
2023/01/17 14:02:49;;;;;;;2.92;1.90;;;6.60;99.90;;;;;;5053774;28;20037;-69
2023/01/17 14:05:20;;;;;;;4.22;1.27;;;6.60;99.90;;;;;;5053189;28;20112;-68
2023/01/17 14:07:56;;;;;;;3.20;1.98;;;6.50;99.90;;;;;;5053821;28;20036;-68
2023/01/17 14:10:27;;;;;;;4.03;1.90;;;6.50;99.90;;;;;;5054489;28;20112;-68
2023/01/17 14:12:54;;;;;;;1.98;1.48;;;6.50;99.90;;;;;;5056969;28;20025;-68
2023/01/17 14:15:24;;;;;;;6.18;2.10;;;6.50;99.90;;;;;;5054134;28;20028;-68
2023/01/17 14:17:51;;;;;;;4.22;1.65;;;6.40;99.90;;;;;;5053899;28;20029;-68
2023/01/17 14:20:17;;;;;;;2.70;1.83;;;6.40;99.90;;;;;;5051753;28;20025;-68
2023/01/17 14:23:19;;;;;;;3.92;1.90;;;6.40;99.90;;;;;;5053424;28;20587;-68
2023/01/17 14:25:45;;;;;;;3.67;2.03;;;6.40;99.90;;;;;;5053505;28;20025;-68
2023/01/17 14:28:26;;;;;;;3.47;2.20;;;6.30;99.90;;;;;;5052979;28;20029;-68
2023/01/17 14:30:54;;;;;;;7.80;2.83;;;6.30;99.90;;;;;;5053346;28;20036;-68
2023/01/17 14:33:35;;;;;;;4.60;2.13;;;6.20;99.90;;;;;;5052840;28;20025;-68
2023/01/17 14:36:04;;;;;;;4.80;2.83;;;6.20;99.90;;;;;;5051850;28;20539;-68
2023/01/17 14:38:32;;;;;;;7.45;2.72;;;6.10;99.90;;;;;;5052375;28;20035;-68
2023/01/17 14:41:20;;;;;;;4.65;2.75;;;6.20;99.90;;;;;;5052658;28;20517;-67